sensor_id;sensor_type;location;lat;lon;timestamp;P1;durP1;ratioP1;P2;durP2;ratioP2
3217;SDS011;1621;49.702;8.618;2023-04-01T00:00:10;5.07;;;1.60;;
3217;SDS011;1621;49.702;8.618;2023-04-01T00:02:36;4.00;;;1.50;;
3217;SDS011;1621;49.702;8.618;2023-04-01T00:05:03;4.77;;;1.57;;
3217;SDS011;1621;49.702;8.618;2023-04-01T00:07:30;5.50;;;1.60;;
3217;SDS011;1621;49.702;8.618;2023-04-01T00:09:58;6.47;;;1.30;;
3217;SDS011;1621;49.702;8.618;2023-04-01T00:12:25;3.67;;;1.50;;
3217;SDS011;1621;49.702;8.618;2023-04-01T00:14:52;3.73;;;1.33;;
3217;SDS011;1621;49.702;8.618;2023-04-01T00:17:18;6.27;;;1.90;;
3217;SDS011;1621;49.702;8.618;2023-04-01T00:19:45;3.10;;;1.40;;
3217;SDS011;1621;49.702;8.618;2023-04-01T00:22:11;5.50;;;1.60;;
3217;SDS011;1621;49.702;8.618;2023-04-01T00:24:38;4.77;;;1.90;;
3217;SDS011;1621;49.702;8.618;2023-04-01T00:27:04;4.50;;;1.50;;
3217;SDS011;1621;49.702;8.618;2023-04-01T00:29:32;5.50;;;1.60;;
3217;SDS011;1621;49.702;8.618;2023-04-01T00:31:58;6.00;;;2.07;;
3217;SDS011;1621;49.702;8.618;2023-04-01T00:34:24;5.33;;;1.63;;
3217;SDS011;1621;49.702;8.618;2023-04-01T00:36:51;4.13;;;1.43;;
3217;SDS011;1621;49.702;8.618;2023-04-01T00:39:19;3.40;;;1.37;;
3217;SDS011;1621;49.702;8.618;2023-04-01T00:41:45;6.43;;;1.60;;
3217;SDS011;1621;49.702;8.618;2023-04-01T00:44:16;6.70;;;1.83;;
3217;SDS011;1621;49.702;8.618;2023-04-01T00:46:44;4.93;;;1.67;;
3217;SDS011;1621;49.702;8.618;2023-04-01T00:49:10;5.10;;;1.50;;
3217;SDS011;1621;49.702;8.618;2023-04-01T00:51:37;5.70;;;1.67;;
3217;SDS011;1621;49.702;8.618;2023-04-01T00:54:03;9.23;;;2.50;;
3217;SDS011;1621;49.702;8.618;2023-04-01T00:56:31;8.07;;;1.70;;
3217;SDS011;1621;49.702;8.618;2023-04-01T00:59:01;4.70;;;1.60;;
3217;SDS011;1621;49.702;8.618;2023-04-01T01:01:28;5.10;;;1.77;;
3217;SDS011;1621;49.702;8.618;2023-04-01T01:03:57;4.60;;;1.13;;
3217;SDS011;1621;49.702;8.618;2023-04-01T01:06:26;5.57;;;2.00;;
3217;SDS011;1621;49.702;8.618;2023-04-01T01:09:01;5.87;;;1.63;;
3217;SDS011;1621;49.702;8.618;2023-04-01T01:11:34;3.50;;;1.37;;
3217;SDS011;1621;49.702;8.618;2023-04-01T01:14:03;6.00;;;1.30;;
3217;SDS011;1621;49.702;8.618;2023-04-01T01:16:34;4.80;;;1.70;;
3217;SDS011;1621;49.702;8.618;2023-04-01T01:19:06;3.57;;;1.53;;
3217;SDS011;1621;49.702;8.618;2023-04-01T01:24:39;5.27;;;1.40;;
3217;SDS011;1621;49.702;8.618;2023-04-01T01:27:06;7.03;;;1.70;;
3217;SDS011;1621;49.702;8.618;2023-04-01T01:29:54;4.13;;;1.40;;
3217;SDS011;1621;49.702;8.618;2023-04-01T01:32:27;3.93;;;1.70;;
3217;SDS011;1621;49.702;8.618;2023-04-01T01:35:03;4.63;;;1.70;;
3217;SDS011;1621;49.702;8.618;2023-04-01T01:37:30;3.83;;;1.30;;
3217;SDS011;1621;49.702;8.618;2023-04-01T01:39:58;5.37;;;1.50;;
3217;SDS011;1621;49.702;8.618;2023-04-01T01:42:26;6.50;;;1.50;;
3217;SDS011;1621;49.702;8.618;2023-04-01T01:44:53;5.07;;;1.80;;
3217;SDS011;1621;49.702;8.618;2023-04-01T01:47:21;4.27;;;1.40;;
3217;SDS011;1621;49.702;8.618;2023-04-01T01:49:48;4.27;;;1.60;;
3217;SDS011;1621;49.702;8.618;2023-04-01T01:52:16;4.40;;;1.67;;
3217;SDS011;1621;49.702;8.618;2023-04-01T01:54:46;5.50;;;1.40;;
3217;SDS011;1621;49.702;8.618;2023-04-01T01:57:13;7.17;;;1.73;;
3217;SDS011;1621;49.702;8.618;2023-04-01T01:59:40;3.77;;;1.50;;
3217;SDS011;1621;49.702;8.618;2023-04-01T02:02:08;6.37;;;1.50;;
3217;SDS011;1621;49.702;8.618;2023-04-01T02:04:36;9.40;;;1.73;;
3217;SDS011;1621;49.702;8.618;2023-04-01T02:07:04;3.03;;;1.17;;
3217;SDS011;1621;49.702;8.618;2023-04-01T02:09:34;5.70;;;1.43;;
3217;SDS011;1621;49.702;8.618;2023-04-01T02:12:00;4.67;;;1.50;;
3217;SDS011;1621;49.702;8.618;2023-04-01T02:14:29;4.40;;;1.67;;
3217;SDS011;1621;49.702;8.618;2023-04-01T02:17:01;6.67;;;1.83;;
3217;SDS011;1621;49.702;8.618;2023-04-01T02:19:30;7.90;;;1.77;;
3217;SDS011;1621;49.702;8.618;2023-04-01T02:21:59;5.33;;;1.70;;
3217;SDS011;1621;49.702;8.618;2023-04-01T02:24:27;4.87;;;1.60;;
3217;SDS011;1621;49.702;8.618;2023-04-01T02:26:56;5.30;;;1.73;;
3217;SDS011;1621;49.702;8.618;2023-04-01T02:29:23;4.50;;;1.50;;
3217;SDS011;1621;49.702;8.618;2023-04-01T02:31:50;2.40;;;1.13;;
3217;SDS011;1621;49.702;8.618;2023-04-01T02:34:17;7.37;;;1.70;;
3217;SDS011;1621;49.702;8.618;2023-04-01T02:36:44;3.23;;;1.40;;
3217;SDS011;1621;49.702;8.618;2023-04-01T02:39:10;3.83;;;1.57;;
3217;SDS011;1621;49.702;8.618;2023-04-01T02:41:39;5.37;;;1.70;;
3217;SDS011;1621;49.702;8.618;2023-04-01T02:44:07;3.73;;;1.30;;
3217;SDS011;1621;49.702;8.618;2023-04-01T02:46:34;5.90;;;2.00;;
3217;SDS011;1621;49.702;8.618;2023-04-01T02:49:00;6.00;;;1.60;;
3217;SDS011;1621;49.702;8.618;2023-04-01T02:51:26;4.70;;;1.37;;
3217;SDS011;1621;49.702;8.618;2023-04-01T02:53:52;6.50;;;1.80;;
3217;SDS011;1621;49.702;8.618;2023-04-01T02:56:19;7.07;;;1.47;;
3217;SDS011;1621;49.702;8.618;2023-04-01T02:58:46;6.13;;;1.70;;
3217;SDS011;1621;49.702;8.618;2023-04-01T03:01:14;4.63;;;1.37;;
3217;SDS011;1621;49.702;8.618;2023-04-01T03:03:40;2.93;;;1.20;;
3217;SDS011;1621;49.702;8.618;2023-04-01T03:06:07;4.40;;;1.80;;
3217;SDS011;1621;49.702;8.618;2023-04-01T03:08:34;4.73;;;1.70;;
3217;SDS011;1621;49.702;8.618;2023-04-01T03:11:00;4.80;;;1.50;;
3217;SDS011;1621;49.702;8.618;2023-04-01T03:13:26;7.73;;;2.07;;
3217;SDS011;1621;49.702;8.618;2023-04-01T03:15:53;3.27;;;1.57;;
3217;SDS011;1621;49.702;8.618;2023-04-01T03:18:20;3.17;;;1.60;;
3217;SDS011;1621;49.702;8.618;2023-04-01T03:20:47;5.80;;;1.57;;
3217;SDS011;1621;49.702;8.618;2023-04-01T03:23:13;3.87;;;1.40;;
3217;SDS011;1621;49.702;8.618;2023-04-01T03:25:41;4.00;;;1.37;;
3217;SDS011;1621;49.702;8.618;2023-04-01T03:28:08;4.50;;;1.50;;
3217;SDS011;1621;49.702;8.618;2023-04-01T03:30:35;4.77;;;1.80;;
3217;SDS011;1621;49.702;8.618;2023-04-01T03:33:01;4.60;;;1.30;;
3217;SDS011;1621;49.702;8.618;2023-04-01T03:35:29;4.00;;;1.60;;
3217;SDS011;1621;49.702;8.618;2023-04-01T03:37:55;6.17;;;1.23;;
3217;SDS011;1621;49.702;8.618;2023-04-01T03:40:21;2.80;;;1.10;;
3217;SDS011;1621;49.702;8.618;2023-04-01T03:42:48;4.83;;;1.37;;
3217;SDS011;1621;49.702;8.618;2023-04-01T03:45:15;3.20;;;1.27;;
3217;SDS011;1621;49.702;8.618;2023-04-01T03:47:41;6.27;;;1.93;;
3217;SDS011;1621;49.702;8.618;2023-04-01T03:50:07;7.70;;;1.40;;
3217;SDS011;1621;49.702;8.618;2023-04-01T03:52:36;3.17;;;1.30;;
3217;SDS011;1621;49.702;8.618;2023-04-01T03:55:02;3.67;;;1.40;;
3217;SDS011;1621;49.702;8.618;2023-04-01T03:57:30;4.20;;;1.07;;
3217;SDS011;1621;49.702;8.618;2023-04-01T03:59:56;4.10;;;1.20;;
3217;SDS011;1621;49.702;8.618;2023-04-01T04:02:23;4.20;;;1.73;;
3217;SDS011;1621;49.702;8.618;2023-04-01T04:04:49;3.73;;;1.20;;
3217;SDS011;1621;49.702;8.618;2023-04-01T04:07:15;4.47;;;1.60;;
3217;SDS011;1621;49.702;8.618;2023-04-01T04:09:43;4.00;;;1.40;;
3217;SDS011;1621;49.702;8.618;2023-04-01T04:12:09;4.80;;;1.33;;
3217;SDS011;1621;49.702;8.618;2023-04-01T04:14:36;3.07;;;1.10;;
3217;SDS011;1621;49.702;8.618;2023-04-01T04:17:02;3.07;;;1.40;;
3217;SDS011;1621;49.702;8.618;2023-04-01T04:19:31;4.27;;;1.37;;
3217;SDS011;1621;49.702;8.618;2023-04-01T04:21:58;6.60;;;1.30;;
3217;SDS011;1621;49.702;8.618;2023-04-01T04:24:26;3.70;;;1.37;;
3217;SDS011;1621;49.702;8.618;2023-04-01T04:26:54;4.97;;;1.50;;
3217;SDS011;1621;49.702;8.618;2023-04-01T04:29:20;5.60;;;1.83;;
3217;SDS011;1621;49.702;8.618;2023-04-01T04:31:47;3.70;;;1.40;;
3217;SDS011;1621;49.702;8.618;2023-04-01T04:34:14;3.40;;;1.27;;
3217;SDS011;1621;49.702;8.618;2023-04-01T04:36:40;3.13;;;1.37;;
3217;SDS011;1621;49.702;8.618;2023-04-01T04:39:06;6.23;;;1.60;;
3217;SDS011;1621;49.702;8.618;2023-04-01T04:41:32;4.00;;;1.10;;
3217;SDS011;1621;49.702;8.618;2023-04-01T04:44:00;3.83;;;1.10;;
3217;SDS011;1621;49.702;8.618;2023-04-01T04:46:26;3.40;;;1.00;;
3217;SDS011;1621;49.702;8.618;2023-04-01T04:48:53;3.93;;;1.10;;
3217;SDS011;1621;49.702;8.618;2023-04-01T04:51:20;3.73;;;1.30;;
3217;SDS011;1621;49.702;8.618;2023-04-01T04:53:46;5.70;;;1.27;;
3217;SDS011;1621;49.702;8.618;2023-04-01T04:56:16;2.60;;;1.30;;
3217;SDS011;1621;49.702;8.618;2023-04-01T04:58:43;3.50;;;1.23;;
3217;SDS011;1621;49.702;8.618;2023-04-01T05:01:11;4.20;;;1.10;;
3217;SDS011;1621;49.702;8.618;2023-04-01T05:03:38;3.83;;;1.30;;
3217;SDS011;1621;49.702;8.618;2023-04-01T05:06:04;4.23;;;1.20;;
3217;SDS011;1621;49.702;8.618;2023-04-01T05:08:31;5.20;;;1.87;;
3217;SDS011;1621;49.702;8.618;2023-04-01T05:10:57;6.53;;;1.80;;
3217;SDS011;1621;49.702;8.618;2023-04-01T05:13:24;4.00;;;1.50;;
3217;SDS011;1621;49.702;8.618;2023-04-01T05:15:50;4.03;;;1.40;;
3217;SDS011;1621;49.702;8.618;2023-04-01T05:18:18;2.60;;;1.20;;
3217;SDS011;1621;49.702;8.618;2023-04-01T05:20:47;4.60;;;1.50;;
3217;SDS011;1621;49.702;8.618;2023-04-01T05:23:14;3.03;;;1.23;;
3217;SDS011;1621;49.702;8.618;2023-04-01T05:25:40;3.07;;;1.10;;
3217;SDS011;1621;49.702;8.618;2023-04-01T05:28:06;3.80;;;1.23;;
3217;SDS011;1621;49.702;8.618;2023-04-01T05:30:33;4.10;;;1.60;;
3217;SDS011;1621;49.702;8.618;2023-04-01T05:32:59;2.83;;;1.00;;
3217;SDS011;1621;49.702;8.618;2023-04-01T05:35:27;4.27;;;1.27;;
3217;SDS011;1621;49.702;8.618;2023-04-01T05:37:53;5.97;;;1.10;;
3217;SDS011;1621;49.702;8.618;2023-04-01T05:40:19;3.70;;;1.37;;
3217;SDS011;1621;49.702;8.618;2023-04-01T05:42:45;4.97;;;1.40;;
3217;SDS011;1621;49.702;8.618;2023-04-01T05:45:12;5.10;;;1.93;;
3217;SDS011;1621;49.702;8.618;2023-04-01T05:47:40;5.87;;;1.27;;
3217;SDS011;1621;49.702;8.618;2023-04-01T05:50:07;3.33;;;1.23;;
3217;SDS011;1621;49.702;8.618;2023-04-01T05:52:35;4.67;;;1.43;;
3217;SDS011;1621;49.702;8.618;2023-04-01T05:55:01;3.73;;;1.40;;
3217;SDS011;1621;49.702;8.618;2023-04-01T05:57:27;3.63;;;1.33;;
3217;SDS011;1621;49.702;8.618;2023-04-01T05:59:53;5.33;;;1.20;;
3217;SDS011;1621;49.702;8.618;2023-04-01T06:02:20;5.43;;;1.67;;
3217;SDS011;1621;49.702;8.618;2023-04-01T06:04:46;6.70;;;1.60;;
3217;SDS011;1621;49.702;8.618;2023-04-01T06:07:13;5.67;;;2.00;;
3217;SDS011;1621;49.702;8.618;2023-04-01T06:09:41;8.70;;;2.80;;
3217;SDS011;1621;49.702;8.618;2023-04-01T06:12:16;13.30;;;4.33;;
3217;SDS011;1621;49.702;8.618;2023-04-01T06:14:45;6.10;;;2.53;;
3217;SDS011;1621;49.702;8.618;2023-04-01T06:17:18;9.87;;;2.30;;
3217;SDS011;1621;49.702;8.618;2023-04-01T06:19:50;6.60;;;2.00;;
3217;SDS011;1621;49.702;8.618;2023-04-01T06:22:21;4.77;;;1.40;;
3217;SDS011;1621;49.702;8.618;2023-04-01T06:24:53;4.43;;;1.50;;
3217;SDS011;1621;49.702;8.618;2023-04-01T06:27:26;5.43;;;2.17;;
3217;SDS011;1621;49.702;8.618;2023-04-01T06:30:03;3.13;;;1.20;;
3217;SDS011;1621;49.702;8.618;2023-04-01T06:35:17;2.63;;;0.90;;
3217;SDS011;1621;49.702;8.618;2023-04-01T06:37:50;3.20;;;1.50;;
3217;SDS011;1621;49.702;8.618;2023-04-01T06:40:34;3.30;;;1.17;;
3217;SDS011;1621;49.702;8.618;2023-04-01T06:43:05;2.83;;;0.97;;
3217;SDS011;1621;49.702;8.618;2023-04-01T06:45:37;2.90;;;1.30;;
3217;SDS011;1621;49.702;8.618;2023-04-01T06:48:10;3.00;;;1.10;;
3217;SDS011;1621;49.702;8.618;2023-04-01T06:50:41;3.10;;;1.33;;
3217;SDS011;1621;49.702;8.618;2023-04-01T06:53:10;6.73;;;1.50;;
3217;SDS011;1621;49.702;8.618;2023-04-01T06:55:40;8.77;;;3.20;;
3217;SDS011;1621;49.702;8.618;2023-04-01T06:58:11;3.30;;;1.00;;
3217;SDS011;1621;49.702;8.618;2023-04-01T07:00:39;3.83;;;1.40;;
3217;SDS011;1621;49.702;8.618;2023-04-01T07:03:10;3.13;;;1.50;;
3217;SDS011;1621;49.702;8.618;2023-04-01T07:05:39;2.97;;;1.17;;
3217;SDS011;1621;49.702;8.618;2023-04-01T07:08:08;6.70;;;2.23;;
3217;SDS011;1621;49.702;8.618;2023-04-01T07:10:37;4.33;;;1.30;;
3217;SDS011;1621;49.702;8.618;2023-04-01T07:13:13;3.30;;;1.23;;
3217;SDS011;1621;49.702;8.618;2023-04-01T07:15:41;3.57;;;1.17;;
3217;SDS011;1621;49.702;8.618;2023-04-01T07:18:10;2.70;;;1.03;;
3217;SDS011;1621;49.702;8.618;2023-04-01T07:20:38;8.00;;;1.23;;
3217;SDS011;1621;49.702;8.618;2023-04-01T07:23:06;2.97;;;1.00;;
3217;SDS011;1621;49.702;8.618;2023-04-01T07:25:33;3.30;;;1.30;;
3217;SDS011;1621;49.702;8.618;2023-04-01T07:28:01;3.23;;;1.10;;
3217;SDS011;1621;49.702;8.618;2023-04-01T07:30:33;2.00;;;0.83;;
3217;SDS011;1621;49.702;8.618;2023-04-01T07:33:04;2.47;;;0.90;;
3217;SDS011;1621;49.702;8.618;2023-04-01T07:35:33;2.17;;;0.90;;
3217;SDS011;1621;49.702;8.618;2023-04-01T07:38:09;2.40;;;0.80;;
3217;SDS011;1621;49.702;8.618;2023-04-01T07:40:39;3.80;;;1.10;;
3217;SDS011;1621;49.702;8.618;2023-04-01T07:43:11;2.87;;;1.10;;
3217;SDS011;1621;49.702;8.618;2023-04-01T07:45:42;3.40;;;1.10;;
3217;SDS011;1621;49.702;8.618;2023-04-01T07:48:16;2.77;;;0.80;;
3217;SDS011;1621;49.702;8.618;2023-04-01T07:50:46;4.07;;;1.00;;
3217;SDS011;1621;49.702;8.618;2023-04-01T07:53:17;2.23;;;0.90;;
3217;SDS011;1621;49.702;8.618;2023-04-01T07:55:45;2.10;;;0.80;;
3217;SDS011;1621;49.702;8.618;2023-04-01T07:58:16;2.93;;;0.87;;
3217;SDS011;1621;49.702;8.618;2023-04-01T08:00:47;2.57;;;0.83;;
3217;SDS011;1621;49.702;8.618;2023-04-01T08:03:23;2.30;;;0.90;;
3217;SDS011;1621;49.702;8.618;2023-04-01T08:05:53;3.23;;;1.30;;
3217;SDS011;1621;49.702;8.618;2023-04-01T08:08:23;2.27;;;1.00;;
3217;SDS011;1621;49.702;8.618;2023-04-01T08:10:54;3.00;;;1.10;;
3217;SDS011;1621;49.702;8.618;2023-04-01T08:13:24;3.47;;;1.07;;
3217;SDS011;1621;49.702;8.618;2023-04-01T08:15:56;2.30;;;1.00;;
3217;SDS011;1621;49.702;8.618;2023-04-01T08:18:31;2.17;;;0.90;;
3217;SDS011;1621;49.702;8.618;2023-04-01T08:21:05;2.90;;;1.10;;
3217;SDS011;1621;49.702;8.618;2023-04-01T08:23:36;2.10;;;0.80;;
3217;SDS011;1621;49.702;8.618;2023-04-01T08:26:04;2.90;;;1.00;;
3217;SDS011;1621;49.702;8.618;2023-04-01T08:28:32;2.53;;;1.07;;
3217;SDS011;1621;49.702;8.618;2023-04-01T08:31:02;4.67;;;1.30;;
3217;SDS011;1621;49.702;8.618;2023-04-01T08:33:32;2.33;;;0.80;;
3217;SDS011;1621;49.702;8.618;2023-04-01T08:35:59;2.20;;;0.90;;
3217;SDS011;1621;49.702;8.618;2023-04-01T08:38:29;3.80;;;1.07;;
3217;SDS011;1621;49.702;8.618;2023-04-01T08:40:59;2.60;;;1.20;;
3217;SDS011;1621;49.702;8.618;2023-04-01T08:43:41;3.97;;;1.30;;
3217;SDS011;1621;49.702;8.618;2023-04-01T08:46:16;2.63;;;1.00;;
3217;SDS011;1621;49.702;8.618;2023-04-01T08:48:48;2.20;;;0.90;;
3217;SDS011;1621;49.702;8.618;2023-04-01T08:54:12;3.90;;;0.90;;
3217;SDS011;1621;49.702;8.618;2023-04-01T08:56:42;2.93;;;1.17;;
3217;SDS011;1621;49.702;8.618;2023-04-01T08:59:16;4.60;;;0.77;;
3217;SDS011;1621;49.702;8.618;2023-04-01T09:04:37;2.60;;;1.00;;
3217;SDS011;1621;49.702;8.618;2023-04-01T09:07:14;2.37;;;0.90;;
3217;SDS011;1621;49.702;8.618;2023-04-01T09:09:50;2.87;;;1.00;;
3217;SDS011;1621;49.702;8.618;2023-04-01T09:15:16;4.37;;;1.37;;
3217;SDS011;1621;49.702;8.618;2023-04-01T09:17:48;2.57;;;0.90;;
3217;SDS011;1621;49.702;8.618;2023-04-01T09:20:19;2.53;;;0.90;;
3217;SDS011;1621;49.702;8.618;2023-04-01T09:22:50;2.43;;;0.90;;
3217;SDS011;1621;49.702;8.618;2023-04-01T09:25:26;3.10;;;1.30;;
3217;SDS011;1621;49.702;8.618;2023-04-01T09:27:56;2.03;;;0.80;;
3217;SDS011;1621;49.702;8.618;2023-04-01T09:30:32;2.87;;;1.50;;
3217;SDS011;1621;49.702;8.618;2023-04-01T09:35:48;2.57;;;0.93;;
3217;SDS011;1621;49.702;8.618;2023-04-01T09:38:19;4.23;;;1.20;;
3217;SDS011;1621;49.702;8.618;2023-04-01T09:40:47;2.50;;;0.90;;
3217;SDS011;1621;49.702;8.618;2023-04-01T09:43:23;4.47;;;1.07;;
3217;SDS011;1621;49.702;8.618;2023-04-01T09:46:00;2.20;;;0.80;;
3217;SDS011;1621;49.702;8.618;2023-04-01T09:48:35;2.10;;;1.00;;
3217;SDS011;1621;49.702;8.618;2023-04-01T09:51:10;2.70;;;1.00;;
3217;SDS011;1621;49.702;8.618;2023-04-01T09:53:45;2.90;;;0.90;;
3217;SDS011;1621;49.702;8.618;2023-04-01T09:56:18;2.23;;;1.07;;
3217;SDS011;1621;49.702;8.618;2023-04-01T10:01:39;2.83;;;0.93;;
3217;SDS011;1621;49.702;8.618;2023-04-01T10:07:06;2.30;;;0.80;;
3217;SDS011;1621;49.702;8.618;2023-04-01T10:09:42;3.20;;;1.50;;
3217;SDS011;1621;49.702;8.618;2023-04-01T10:12:17;2.10;;;1.03;;
3217;SDS011;1621;49.702;8.618;2023-04-01T10:14:56;3.80;;;1.10;;
3217;SDS011;1621;49.702;8.618;2023-04-01T10:17:39;2.93;;;1.23;;
3217;SDS011;1621;49.702;8.618;2023-04-01T10:23:15;2.17;;;1.00;;
3217;SDS011;1621;49.702;8.618;2023-04-01T10:25:50;3.40;;;1.43;;
3217;SDS011;1621;49.702;8.618;2023-04-01T10:31:13;3.67;;;1.40;;
3217;SDS011;1621;49.702;8.618;2023-04-01T10:36:40;3.23;;;1.30;;
3217;SDS011;1621;49.702;8.618;2023-04-01T10:39:27;3.30;;;1.80;;
3217;SDS011;1621;49.702;8.618;2023-04-01T10:42:10;3.40;;;1.80;;
3217;SDS011;1621;49.702;8.618;2023-04-01T10:44:49;2.60;;;1.00;;
3217;SDS011;1621;49.702;8.618;2023-04-01T10:55:42;6.50;;;0.70;;
3217;SDS011;1621;49.702;8.618;2023-04-01T11:01:02;1.90;;;0.80;;
3217;SDS011;1621;49.702;8.618;2023-04-01T11:03:42;3.50;;;0.70;;
3217;SDS011;1621;49.702;8.618;2023-04-01T11:09:06;2.20;;;0.80;;
3217;SDS011;1621;49.702;8.618;2023-04-01T11:11:47;1.70;;;0.67;;
3217;SDS011;1621;49.702;8.618;2023-04-01T11:14:38;2.10;;;0.90;;
3217;SDS011;1621;49.702;8.618;2023-04-01T11:17:15;1.93;;;0.80;;
3217;SDS011;1621;49.702;8.618;2023-04-01T11:22:48;1.90;;;0.80;;
3217;SDS011;1621;49.702;8.618;2023-04-01T11:25:25;2.13;;;0.87;;
3217;SDS011;1621;49.702;8.618;2023-04-01T11:28:01;2.10;;;0.93;;
3217;SDS011;1621;49.702;8.618;2023-04-01T11:30:38;1.70;;;0.70;;
3217;SDS011;1621;49.702;8.618;2023-04-01T11:33:07;1.87;;;0.70;;
3217;SDS011;1621;49.702;8.618;2023-04-01T11:35:42;3.13;;;0.90;;
3217;SDS011;1621;49.702;8.618;2023-04-01T11:38:18;3.17;;;0.90;;
3217;SDS011;1621;49.702;8.618;2023-04-01T11:40:47;4.03;;;0.80;;
3217;SDS011;1621;49.702;8.618;2023-04-01T11:43:21;5.70;;;0.83;;
3217;SDS011;1621;49.702;8.618;2023-04-01T11:45:50;2.00;;;0.90;;
3217;SDS011;1621;49.702;8.618;2023-04-01T11:48:25;3.40;;;1.33;;
3217;SDS011;1621;49.702;8.618;2023-04-01T11:50:57;2.57;;;1.30;;
3217;SDS011;1621;49.702;8.618;2023-04-01T11:53:29;4.43;;;3.13;;
3217;SDS011;1621;49.702;8.618;2023-04-01T11:55:59;3.67;;;2.33;;
3217;SDS011;1621;49.702;8.618;2023-04-01T11:58:36;2.43;;;1.00;;
3217;SDS011;1621;49.702;8.618;2023-04-01T12:01:12;2.60;;;0.97;;
3217;SDS011;1621;49.702;8.618;2023-04-01T12:03:46;1.87;;;0.80;;
3217;SDS011;1621;49.702;8.618;2023-04-01T12:06:15;4.23;;;2.97;;
3217;SDS011;1621;49.702;8.618;2023-04-01T12:08:45;4.93;;;2.63;;
3217;SDS011;1621;49.702;8.618;2023-04-01T12:11:15;3.20;;;1.67;;
3217;SDS011;1621;49.702;8.618;2023-04-01T12:13:45;2.80;;;1.40;;
3217;SDS011;1621;49.702;8.618;2023-04-01T12:16:16;3.17;;;1.97;;
3217;SDS011;1621;49.702;8.618;2023-04-01T12:18:48;9.33;;;7.37;;
3217;SDS011;1621;49.702;8.618;2023-04-01T12:21:17;13.57;;;10.47;;
3217;SDS011;1621;49.702;8.618;2023-04-01T12:23:58;7.73;;;5.40;;
3217;SDS011;1621;49.702;8.618;2023-04-01T12:26:35;3.17;;;1.97;;
3217;SDS011;1621;49.702;8.618;2023-04-01T12:29:14;3.57;;;1.90;;
3217;SDS011;1621;49.702;8.618;2023-04-01T12:31:48;2.60;;;1.50;;
3217;SDS011;1621;49.702;8.618;2023-04-01T12:37:12;2.17;;;1.03;;
3217;SDS011;1621;49.702;8.618;2023-04-01T12:39:51;1.97;;;0.90;;
3217;SDS011;1621;49.702;8.618;2023-04-01T12:42:30;2.77;;;0.97;;
3217;SDS011;1621;49.702;8.618;2023-04-01T12:45:05;2.27;;;0.97;;
3217;SDS011;1621;49.702;8.618;2023-04-01T12:47:57;2.43;;;0.80;;
3217;SDS011;1621;49.702;8.618;2023-04-01T12:50:33;2.00;;;0.83;;
3217;SDS011;1621;49.702;8.618;2023-04-01T12:53:09;2.27;;;1.10;;
3217;SDS011;1621;49.702;8.618;2023-04-01T12:55:40;2.53;;;1.20;;
3217;SDS011;1621;49.702;8.618;2023-04-01T12:58:13;3.07;;;1.10;;
3217;SDS011;1621;49.702;8.618;2023-04-01T13:00:48;2.20;;;1.03;;
3217;SDS011;1621;49.702;8.618;2023-04-01T13:03:24;3.30;;;1.17;;
3217;SDS011;1621;49.702;8.618;2023-04-01T13:06:07;2.10;;;1.03;;
3217;SDS011;1621;49.702;8.618;2023-04-01T13:08:40;2.20;;;0.80;;
3217;SDS011;1621;49.702;8.618;2023-04-01T13:11:13;2.00;;;0.93;;
3217;SDS011;1621;49.702;8.618;2023-04-01T13:13:48;2.73;;;0.90;;
3217;SDS011;1621;49.702;8.618;2023-04-01T13:16:22;2.30;;;0.90;;
3217;SDS011;1621;49.702;8.618;2023-04-01T13:18:53;1.90;;;0.87;;
3217;SDS011;1621;49.702;8.618;2023-04-01T13:21:25;2.00;;;0.80;;
3217;SDS011;1621;49.702;8.618;2023-04-01T13:23:55;1.90;;;0.80;;
3217;SDS011;1621;49.702;8.618;2023-04-01T13:26:26;2.07;;;0.90;;
3217;SDS011;1621;49.702;8.618;2023-04-01T13:28:55;2.50;;;1.20;;
3217;SDS011;1621;49.702;8.618;2023-04-01T13:31:30;2.00;;;0.80;;
3217;SDS011;1621;49.702;8.618;2023-04-01T13:34:00;2.43;;;0.83;;
3217;SDS011;1621;49.702;8.618;2023-04-01T13:36:33;2.43;;;1.10;;
3217;SDS011;1621;49.702;8.618;2023-04-01T13:39:10;1.80;;;0.70;;
3217;SDS011;1621;49.702;8.618;2023-04-01T13:41:43;2.00;;;0.80;;
3217;SDS011;1621;49.702;8.618;2023-04-01T13:44:13;1.97;;;0.80;;
3217;SDS011;1621;49.702;8.618;2023-04-01T13:46:46;1.80;;;0.70;;
3217;SDS011;1621;49.702;8.618;2023-04-01T13:49:34;1.90;;;0.83;;
3217;SDS011;1621;49.702;8.618;2023-04-01T13:52:10;3.10;;;0.93;;
3217;SDS011;1621;49.702;8.618;2023-04-01T13:54:55;3.10;;;1.07;;
3217;SDS011;1621;49.702;8.618;2023-04-01T13:57:27;1.90;;;0.80;;
3217;SDS011;1621;49.702;8.618;2023-04-01T14:00:03;3.50;;;1.00;;
3217;SDS011;1621;49.702;8.618;2023-04-01T14:05:31;4.20;;;1.53;;
3217;SDS011;1621;49.702;8.618;2023-04-01T14:08:01;7.00;;;4.70;;
3217;SDS011;1621;49.702;8.618;2023-04-01T14:10:34;3.40;;;1.90;;
3217;SDS011;1621;49.702;8.618;2023-04-01T14:13:03;2.70;;;1.10;;
3217;SDS011;1621;49.702;8.618;2023-04-01T14:18:32;2.40;;;1.07;;
3217;SDS011;1621;49.702;8.618;2023-04-01T14:21:05;2.77;;;1.00;;
3217;SDS011;1621;49.702;8.618;2023-04-01T14:23:37;2.30;;;0.93;;
3217;SDS011;1621;49.702;8.618;2023-04-01T14:28:55;2.70;;;0.77;;
3217;SDS011;1621;49.702;8.618;2023-04-01T14:34:08;2.33;;;1.10;;
3217;SDS011;1621;49.702;8.618;2023-04-01T14:36:47;3.37;;;1.10;;
3217;SDS011;1621;49.702;8.618;2023-04-01T14:39:23;2.60;;;1.10;;
3217;SDS011;1621;49.702;8.618;2023-04-01T14:41:56;2.97;;;1.00;;
3217;SDS011;1621;49.702;8.618;2023-04-01T14:44:33;2.37;;;1.00;;
3217;SDS011;1621;49.702;8.618;2023-04-01T14:47:08;2.20;;;0.97;;
3217;SDS011;1621;49.702;8.618;2023-04-01T14:49:35;1.90;;;0.90;;
3217;SDS011;1621;49.702;8.618;2023-04-01T14:52:06;2.30;;;0.87;;
3217;SDS011;1621;49.702;8.618;2023-04-01T14:54:36;3.90;;;1.30;;
3217;SDS011;1621;49.702;8.618;2023-04-01T14:57:05;2.63;;;1.03;;
3217;SDS011;1621;49.702;8.618;2023-04-01T14:59:39;2.10;;;1.00;;
3217;SDS011;1621;49.702;8.618;2023-04-01T15:02:09;3.80;;;1.00;;
3217;SDS011;1621;49.702;8.618;2023-04-01T15:04:41;2.10;;;0.90;;
3217;SDS011;1621;49.702;8.618;2023-04-01T15:09:56;2.23;;;1.00;;
3217;SDS011;1621;49.702;8.618;2023-04-01T15:12:26;2.03;;;0.97;;
3217;SDS011;1621;49.702;8.618;2023-04-01T15:15:10;2.20;;;1.00;;
3217;SDS011;1621;49.702;8.618;2023-04-01T15:17:48;2.10;;;0.87;;
3217;SDS011;1621;49.702;8.618;2023-04-01T15:20:35;2.87;;;1.37;;
3217;SDS011;1621;49.702;8.618;2023-04-01T15:23:15;2.07;;;1.00;;
3217;SDS011;1621;49.702;8.618;2023-04-01T15:25:48;4.30;;;1.60;;
3217;SDS011;1621;49.702;8.618;2023-04-01T15:28:19;2.57;;;1.23;;
3217;SDS011;1621;49.702;8.618;2023-04-01T15:30:49;4.67;;;1.90;;
3217;SDS011;1621;49.702;8.618;2023-04-01T15:33:23;4.63;;;2.00;;
3217;SDS011;1621;49.702;8.618;2023-04-01T15:35:55;3.00;;;1.40;;
3217;SDS011;1621;49.702;8.618;2023-04-01T15:38:27;4.37;;;1.30;;
3217;SDS011;1621;49.702;8.618;2023-04-01T15:41:00;2.80;;;1.00;;
3217;SDS011;1621;49.702;8.618;2023-04-01T15:43:31;3.00;;;1.07;;
3217;SDS011;1621;49.702;8.618;2023-04-01T15:46:09;2.63;;;1.17;;
3217;SDS011;1621;49.702;8.618;2023-04-01T15:48:43;2.50;;;1.13;;
3217;SDS011;1621;49.702;8.618;2023-04-01T15:51:15;3.60;;;1.07;;
3217;SDS011;1621;49.702;8.618;2023-04-01T15:56:36;2.40;;;0.90;;
3217;SDS011;1621;49.702;8.618;2023-04-01T15:59:09;1.90;;;0.90;;
3217;SDS011;1621;49.702;8.618;2023-04-01T16:01:41;2.40;;;1.00;;
3217;SDS011;1621;49.702;8.618;2023-04-01T16:04:17;2.10;;;1.00;;
3217;SDS011;1621;49.702;8.618;2023-04-01T16:06:56;3.70;;;1.30;;
3217;SDS011;1621;49.702;8.618;2023-04-01T16:09:34;1.83;;;0.73;;
3217;SDS011;1621;49.702;8.618;2023-04-01T16:12:07;2.40;;;0.80;;
3217;SDS011;1621;49.702;8.618;2023-04-01T16:14:38;2.93;;;1.40;;
3217;SDS011;1621;49.702;8.618;2023-04-01T16:17:18;3.53;;;1.30;;
3217;SDS011;1621;49.702;8.618;2023-04-01T16:19:53;1.90;;;0.70;;
3217;SDS011;1621;49.702;8.618;2023-04-01T16:22:22;2.87;;;1.10;;
3217;SDS011;1621;49.702;8.618;2023-04-01T16:24:51;2.30;;;1.10;;
3217;SDS011;1621;49.702;8.618;2023-04-01T16:27:24;2.73;;;1.10;;
3217;SDS011;1621;49.702;8.618;2023-04-01T16:29:51;2.77;;;0.90;;
3217;SDS011;1621;49.702;8.618;2023-04-01T16:32:22;2.13;;;1.00;;
3217;SDS011;1621;49.702;8.618;2023-04-01T16:34:54;2.13;;;0.80;;
3217;SDS011;1621;49.702;8.618;2023-04-01T16:37:27;2.63;;;0.90;;
3217;SDS011;1621;49.702;8.618;2023-04-01T16:40:01;2.67;;;1.10;;
3217;SDS011;1621;49.702;8.618;2023-04-01T16:42:34;2.03;;;0.80;;
3217;SDS011;1621;49.702;8.618;2023-04-01T16:45:06;2.47;;;0.77;;